Time;durP1;ratioP1;P1;durP2;ratioP2;P2;SDS_P1;SDS_P2;PMS_P1;PMS_P2;Temp;Humidity;BMP_temperature;BMP_pressure;BME280_temperature;BME280_humidity;BME280_pressure;Samples;Min_cycle;Max_cycle;Signal;HPM_P1;HPM_P2
2022/11/19 00:02:09;;;;;;;;;6.75;6.75;;;;;10.36;100.00;100697.66;5076869;28;58361;-77
2022/11/19 00:04:35;;;;;;;;;7.50;6.00;;;;;10.35;100.00;100697.63;5077337;28;60406;-76
2022/11/19 00:07:00;;;;;;;;;8.00;5.25;;;;;10.32;100.00;100687.03;5078227;28;45254;-76
2022/11/19 00:09:25;;;;;;;;;6.00;3.75;;;;;10.31;100.00;100686.16;5078084;28;45377;-76
2022/11/19 00:14:35;;;;;;;;;7.25;3.75;;;;;10.29;100.00;100684.38;5077769;28;45896;-76
2022/11/19 00:17:00;;;;;;;;;6.50;5.00;;;;;10.26;100.00;100677.31;5078016;28;45310;-77
2022/11/19 00:19:26;;;;;;;;;7.25;3.75;;;;;10.23;100.00;100693.09;5078127;28;45231;-76
2022/11/19 00:21:51;;;;;;;;;12.50;6.00;;;;;10.18;100.00;100689.53;5077974;28;45588;-77
2022/11/19 00:24:17;;;;;;;;;6.00;4.00;;;;;10.15;100.00;100697.41;5077014;28;63377;-76
2022/11/19 00:26:42;;;;;;;;;5.50;5.50;;;;;10.10;100.00;100693.81;5076914;28;45285;-75
2022/11/19 00:29:10;;;;;;;;;8.75;6.75;;;;;10.05;100.00;100692.88;5077603;28;45252;-75
2022/11/19 00:31:36;;;;;;;;;6.00;6.00;;;;;10.02;100.00;100695.50;5353881;22;46660;-77
2022/11/19 00:34:02;;;;;;;;;5.25;4.50;;;;;10.00;100.00;100708.66;5063143;28;46589;-77
2022/11/19 00:36:27;;;;;;;;;4.25;4.25;;;;;9.93;100.00;100699.81;5060316;28;45396;-78
2022/11/19 00:38:53;;;;;;;;;7.75;3.50;;;;;9.91;100.00;100696.28;5059127;28;64994;-77
2022/11/19 00:41:18;;;;;;;;;12.75;8.50;;;;;9.95;100.00;100698.06;5059276;28;58482;-77
2022/11/19 00:43:46;;;;;;;;;10.75;6.00;;;;;9.96;100.00;100707.75;5070729;28;68068;-77
2022/11/19 00:46:30;;;;;;;;;6.00;6.00;;;;;9.96;100.00;100706.88;5064981;28;45433;-77
2022/11/19 00:48:57;;;;;;;;;7.00;7.00;;;;;9.97;100.00;100701.63;5058604;28;45417;-76
2022/11/19 00:51:25;;;;;;;;;6.00;4.00;;;;;9.98;100.00;100707.78;5070904;28;45555;-76
2022/11/19 00:53:50;;;;;;;;;6.00;3.00;;;;;9.97;100.00;100701.63;5065173;28;46491;-77
2022/11/19 00:56:17;;;;;;;;;8.50;4.00;;;;;9.94;100.00;100698.03;5061439;28;64448;-76
2022/11/19 00:58:43;;;;;;;;;5.25;3.50;;;;;9.91;100.00;100701.53;5041320;28;46982;-77
2022/11/19 01:01:09;;;;;;;;;6.00;3.00;;;;;9.91;100.00;100691.00;5056837;28;45474;-76
2022/11/19 01:03:35;;;;;;;;;6.00;3.25;;;;;9.88;100.00;100685.69;5065625;28;45561;-77
2022/11/19 01:06:01;;;;;;;;;5.25;4.00;;;;;9.86;100.00;100689.19;5060069;28;45450;-78
2022/11/19 01:08:26;;;;;;;;;4.00;2.25;;;;;9.85;100.00;100696.19;5049457;28;45445;-77
2022/11/19 01:10:52;;;;;;;;;3.25;3.25;;;;;9.83;100.00;100700.56;5047783;28;45473;-77
2022/11/19 01:13:36;;;;;;;;;3.50;3.50;;;;;9.82;100.00;100687.38;5058342;28;45489;-77
2022/11/19 01:16:10;;;;;;;;;2.00;2.00;;;;;9.83;100.00;100703.19;5065248;28;45427;-76
2022/11/19 01:18:36;;;;;;;;;4.75;3.25;;;;;9.84;100.00;100710.22;5075545;28;45492;-77
2022/11/19 01:21:04;;;;;;;;;4.00;3.00;;;;;9.85;100.00;100709.34;5075542;28;45426;-77
2022/11/19 01:23:29;;;;;;;;;9.50;4.00;;;;;9.85;100.00;100722.53;5057651;28;46810;-77
2022/11/19 01:25:55;;;;;;;;;7.50;3.00;;;;;9.86;100.00;100728.72;5075593;28;58308;-76
2022/11/19 01:28:20;;;;;;;;;1.75;1.75;;;;;9.84;100.00;100725.16;5076774;28;45434;-76
2022/11/19 01:30:45;;;;;;;;;2.00;2.00;;;;;9.83;100.00;100729.56;5076520;27;46131;-77
2022/11/19 01:33:11;;;;;;;;;2.50;2.50;;;;;9.82;100.00;100727.81;5083675;27;46390;-76
2022/11/19 01:35:36;;;;;;;;;4.50;3.00;;;;;9.80;100.00;100716.38;5069072;28;60571;-76
2022/11/19 01:38:03;;;;;;;;;3.25;3.25;;;;;9.78;100.00;100712.81;5078818;28;45532;-77
2022/11/19 01:40:28;;;;;;;;;6.00;3.00;;;;;9.79;100.00;100721.59;5073967;28;47137;-76
2022/11/19 01:42:54;;;;;;;;;2.25;2.25;;;;;9.77;100.00;100725.97;5078894;28;46484;-76
2022/11/19 01:45:32;;;;;;;;;2.25;2.25;;;;;9.73;100.00;100725.03;5077926;28;59285;-76
2022/11/19 01:48:08;;;;;;;;;3.50;3.50;;;;;9.74;100.00;100728.56;5073253;28;45354;-77
2022/11/19 01:50:38;;;;;;;;;3.50;3.50;;;;;9.70;100.00;100727.66;5060871;28;45762;-76
2022/11/19 01:53:04;;;;;;;;;4.00;3.00;;;;;9.69;100.00;100736.41;5055235;28;45725;-77
2022/11/19 01:55:29;;;;;;;;;3.00;3.00;;;;;9.69;100.00;100728.50;5065545;28;45374;-77
2022/11/19 01:57:58;;;;;;;;;3.00;2.25;;;;;9.70;100.00;100732.94;5078416;28;62844;-77
2022/11/19 02:00:23;;;;;;;;;2.00;2.00;;;;;9.69;100.00;100734.69;5070290;28;45320;-77
2022/11/19 02:02:49;;;;;;;;;4.00;2.75;;;;;9.73;100.00;100725.03;5077154;28;71597;-77
2022/11/19 02:05:15;;;;;;;;;6.75;3.75;;;;;9.76;100.00;100717.19;5077648;28;65428;-77
2022/11/19 02:07:42;;;;;;;;;4.25;2.50;;;;;9.79;100.00;100726.88;5078371;28;45481;-77
2022/11/19 02:10:08;;;;;;;;;2.75;2.75;;;;;9.83;100.00;100729.56;5061745;28;45335;-77
2022/11/19 02:13:18;;;;;;;;;3.75;3.00;;;;;9.87;100.00;100730.50;5066335;28;47223;-77
2022/11/19 02:15:51;;;;;;;;;2.00;2.00;;;;;9.88;100.00;100737.53;5074221;28;45441;-77
2022/11/19 02:18:21;;;;;;;;;5.00;1.00;;;;;9.88;100.00;100737.53;5069490;28;45315;-77
2022/11/19 02:20:52;;;;;;;;;3.50;2.00;;;;;9.91;100.00;100735.84;5060569;28;45486;-77
2022/11/19 02:23:58;;;;;;;;;2.50;2.50;;;;;9.93;100.00;100735.84;5078004;28;45262;-77
2022/11/19 02:26:44;;;;;;;;;2.75;2.75;;;;;9.94;100.00;100735.84;5072034;28;45494;-77
2022/11/19 02:29:28;;;;;;;;;2.50;2.50;;;;;9.92;100.00;100734.97;5076752;28;45416;-77
2022/11/19 02:32:00;;;;;;;;;3.00;3.00;;;;;9.90;100.00;100741.94;5078995;27;45499;-77
2022/11/19 02:34:45;;;;;;;;;4.00;3.00;;;;;9.88;100.00;100737.53;5078170;28;46592;-76
2022/11/19 02:37:40;;;;;;;;;5.50;2.00;;;;;9.84;100.00;100736.59;5059551;28;45399;-76
2022/11/19 02:40:08;;;;;;;;;3.00;3.00;;;;;9.87;100.00;100739.28;5065391;28;45378;-77
2022/11/19 02:42:50;;;;;;;;;2.00;1.00;;;;;9.88;100.00;100730.50;5078617;28;45416;-76
2022/11/19 02:45:28;;;;;;;;;7.25;2.00;;;;;9.92;100.00;100734.06;5059918;28;46499;-76
2022/11/19 02:48:00;;;;;;;;;2.75;2.75;;;;;9.97;100.00;100738.53;5059766;28;45348;-76
2022/11/19 02:50:57;;;;;;;;;2.75;1.25;;;;;9.98;100.00;100742.94;5060520;28;45330;-77
2022/11/19 02:53:23;;;;;;;;;3.50;1.00;;;;;10.02;100.00;100738.59;5076804;28;45572;-77
2022/11/19 02:56:33;;;;;;;;;6.75;3.00;;;;;10.01;100.00;100728.88;5077021;28;45964;-76
2022/11/19 03:06:53;;;;;;;;;3.33;2.00;;;;;10.06;100.00;100734.22;5062240;28;45704;-77
2022/11/19 03:09:19;;;;;;;;;2.75;2.00;;;;;10.06;100.00;100735.09;5058635;28;45799;-77
2022/11/19 03:11:51;;;;;;;;;4.00;2.50;;;;;10.06;100.00;100740.38;5059250;28;61243;-77
2022/11/19 03:17:15;;;;;;;;;7.00;3.25;;;;;10.07;100.00;100743.94;5077705;28;45279;-76
2022/11/19 03:19:44;;;;;;;;;3.00;3.00;;;;;10.05;100.00;100743.00;5058964;28;45559;-76
2022/11/19 03:22:28;;;;;;;;;2.25;2.00;;;;;10.04;100.00;100738.59;5059694;28;45304;-77
2022/11/19 03:24:56;;;;;;;;;3.25;2.00;;;;;10.04;100.00;100743.88;5077565;28;45809;-77
2022/11/19 03:27:25;;;;;;;;;7.75;2.00;;;;;10.00;100.00;100747.34;5077334;28;45807;-77
2022/11/19 03:29:55;;;;;;;;;1.00;1.00;;;;;9.96;100.00;100749.97;5075365;28;45436;-77
2022/11/19 03:32:25;;;;;;;;;4.00;2.33;;;;;9.96;100.00;100746.44;5061769;28;45292;-77
2022/11/19 03:34:55;;;;;;;;;3.25;2.50;;;;;9.95;100.00;100748.16;5058139;28;45363;-77
2022/11/19 03:37:22;;;;;;;;;4.00;2.00;;;;;9.99;100.00;100754.38;5070524;28;47640;-77
2022/11/19 03:39:49;;;;;;;;;5.50;2.75;;;;;9.99;100.00;100751.75;5075482;28;45542;-77
2022/11/19 03:42:16;;;;;;;;;2.50;2.00;;;;;9.96;100.00;100747.31;5077121;28;45367;-76
2022/11/19 03:44:48;;;;;;;;;3.25;3.25;;;;;9.94;100.00;100749.03;5054810;28;47406;-77
2022/11/19 03:47:24;;;;;;;;;3.00;3.00;;;;;9.94;100.00;100745.53;5038706;28;48408;-77
2022/11/19 03:49:57;;;;;;;;;3.00;2.00;;;;;9.94;100.00;100753.44;5073167;28;45278;-76
2022/11/19 03:52:23;;;;;;;;;4.00;2.00;;;;;9.92;100.00;100745.50;5067848;28;45474;-76
2022/11/19 03:54:48;;;;;;;;;3.67;2.67;;;;;9.90;100.00;100749.84;5077171;28;45284;-76
2022/11/19 03:57:17;;;;;;;;;4.00;2.00;;;;;9.90;100.00;100754.25;5069375;28;46176;-77
2022/11/19 03:59:42;;;;;;;;;8.75;2.75;;;;;9.91;100.00;100751.66;5076991;28;45373;-77
2022/11/19 04:02:09;;;;;;;;;4.00;2.75;;;;;9.96;100.00;100757.88;5076704;28;45425;-77
2022/11/19 04:04:38;;;;;;;;;4.50;2.00;;;;;10.01;100.00;100759.66;5059131;28;45577;-77
2022/11/19 04:07:22;;;;;;;;;2.00;2.00;;;;;10.06;100.00;100757.97;5076475;28;46702;-77
2022/11/19 04:09:48;;;;;;;;;5.50;1.50;;;;;10.08;100.00;100762.41;5071143;28;45509;-77
2022/11/19 04:12:21;;;;;;;;;3.75;3.00;;;;;10.12;100.00;100763.31;5076330;28;45370;-77
2022/11/19 04:14:46;;;;;;;;;2.75;2.75;;;;;10.12;100.00;100766.84;5070133;28;45557;-76
2022/11/19 04:17:12;;;;;;;;;5.50;2.00;;;;;10.16;100.00;100763.38;5076489;28;46750;-77
2022/11/19 04:19:37;;;;;;;;;2.25;2.25;;;;;10.19;100.00;100768.69;5076179;28;45299;-77
2022/11/19 04:22:03;;;;;;;;;3.00;3.00;;;;;10.22;100.00;100768.72;5076100;28;61228;-76
2022/11/19 04:24:28;;;;;;;;;2.33;1.00;;;;;10.27;100.00;100771.44;5058661;28;47273;-76
2022/11/19 04:26:53;;;;;;;;;2.50;2.50;;;;;10.29;100.00;100767.09;5066303;28;66211;-76
2022/11/19 04:29:19;;;;;;;;;1.00;1.00;;;;;10.31;100.00;100778.53;5076052;28;64058;-77
2022/11/19 04:31:44;;;;;;;;;3.00;3.00;;;;;10.32;100.00;100782.03;5074737;27;63285;-76
2022/11/19 04:34:10;;;;;;;;;6.00;1.00;;;;;10.35;100.00;100782.09;5079211;27;59518;-76
2022/11/19 04:36:35;;;;;;;;;3.00;3.00;;;;;10.33;100.00;100774.13;5057058;28;62421;-77
2022/11/19 04:39:01;;;;;;;;;6.50;3.75;;;;;10.37;100.00;100786.50;5074737;28;45446;-77
2022/11/19 04:41:26;;;;;;;;;1.67;1.67;;;;;10.39;100.00;100791.81;5059338;28;45323;-76
2022/11/19 04:43:51;;;;;;;;;3.00;3.00;;;;;10.39;100.00;100786.56;5074683;28;45529;-77
2022/11/19 04:46:17;;;;;;;;;3.75;2.50;;;;;10.41;100.00;100792.72;5076542;28;45966;-77
2022/11/19 04:48:42;;;;;;;;;3.00;2.00;;;;;10.40;100.00;100794.47;5076786;28;63707;-77
2022/11/19 04:51:08;;;;;;;;;2.00;2.00;;;;;10.41;100.00;100790.06;5079378;28;46692;-76
2022/11/19 04:53:33;;;;;;;;;2.33;2.00;;;;;10.42;100.00;100790.09;5078742;28;58652;-76
2022/11/19 04:55:58;;;;;;;;;6.00;1.33;;;;;10.41;100.00;100787.44;5079064;28;46447;-77
2022/11/19 04:58:24;;;;;;;;;3.00;2.00;;;;;10.43;100.00;100793.59;5080005;28;45557;-77
2022/11/19 05:00:49;;;;;;;;;3.00;3.00;;;;;10.41;100.00;100796.25;5078729;28;62307;-77
2022/11/19 05:03:14;;;;;;;;;2.67;1.00;;;;;10.39;100.00;100805.91;5078311;28;53002;-77
2022/11/19 05:05:40;;;;;;;;;6.67;2.67;;;;;10.35;100.00;100803.22;5078824;28;63331;-77
2022/11/19 05:08:05;;;;;;;;;2.00;2.00;;;;;10.32;100.00;100811.97;5079047;28;54725;-77
2022/11/19 05:10:31;;;;;;;;;3.00;3.00;;;;;10.27;100.00;100807.50;5079860;28;45486;-78
2022/11/19 05:12:56;;;;;;;;;4.00;2.75;;;;;10.19;100.00;100802.09;5077699;28;62831;-77
2022/11/19 05:15:22;;;;;;;;;3.75;3.25;;;;;10.13;100.00;100813.47;5076294;28;70586;-76
2022/11/19 05:17:47;;;;;;;;;5.25;3.00;;;;;10.11;100.00;100811.66;5078737;28;62577;-76
2022/11/19 05:20:13;;;;;;;;;2.33;2.00;;;;;10.07;100.00;100808.13;5078694;28;60930;-77
2022/11/19 05:22:38;;;;;;;;;3.00;2.00;;;;;10.04;100.00;100807.19;5079216;28;45488;-77
2022/11/19 05:25:04;;;;;;;;;5.50;3.00;;;;;10.00;100.00;100806.25;5077811;28;65341;-76
2022/11/19 05:27:29;;;;;;;;;2.00;2.00;;;;;9.93;100.00;100805.31;5078922;28;45451;-76
2022/11/19 05:29:55;;;;;;;;;3.25;3.25;;;;;9.92;100.00;100800.91;5077532;28;49833;-77
2022/11/19 05:32:20;;;;;;;;;3.25;3.00;;;;;9.88;100.00;100801.72;5079864;27;45484;-76
2022/11/19 05:34:45;;;;;;;;;2.00;2.00;;;;;9.86;100.00;100803.47;5079595;27;47676;-76
2022/11/19 05:37:11;;;;;;;;;4.75;3.00;;;;;9.88;100.00;100811.38;5078684;28;46525;-76
2022/11/19 05:39:36;;;;;;;;;6.25;3.00;;;;;9.83;100.00;100792.84;5077560;28;46697;-76
2022/11/19 05:42:01;;;;;;;;;3.67;2.67;;;;;9.87;100.00;100797.31;5043158;28;63053;-77
2022/11/19 05:44:26;;;;;;;;;3.00;2.25;;;;;9.88;100.00;100796.44;5078875;28;45713;-76
2022/11/19 05:46:52;;;;;;;;;4.00;4.00;;;;;9.92;100.00;100792.09;5077889;28;60718;-77
2022/11/19 05:49:17;;;;;;;;;3.00;2.00;;;;;9.90;100.00;100792.06;5049666;28;45457;-76
2022/11/19 05:51:45;;;;;;;;;1.75;1.75;;;;;9.88;100.00;100785.88;5075505;28;46410;-77
2022/11/19 05:54:10;;;;;;;;;6.00;3.25;;;;;9.88;100.00;100799.06;5078723;28;48177;-76
2022/11/19 05:56:35;;;;;;;;;3.00;3.00;;;;;9.86;100.00;100794.66;5077626;28;56770;-77
2022/11/19 05:59:00;;;;;;;;;6.25;3.00;;;;;9.84;100.00;100805.16;5077951;28;56792;-78
2022/11/19 06:01:27;;;;;;;;;2.00;2.00;;;;;9.84;100.00;100807.81;5077450;28;61680;-77
2022/11/19 06:03:53;;;;;;;;;5.25;3.00;;;;;9.81;100.00;100797.22;5057187;28;47188;-77
2022/11/19 06:06:18;;;;;;;;;2.25;2.25;;;;;9.81;100.00;100791.97;5078080;28;55449;-77
2022/11/19 06:08:44;;;;;;;;;5.00;2.00;;;;;9.83;100.00;100790.22;5079151;28;45315;-77
2022/11/19 06:11:46;;;;;;;;;2.25;2.25;;;;;9.86;100.00;100792.03;5077787;28;54788;-77
2022/11/19 06:13:57;;;;;;;;;4.00;3.00;;;;;9.84;100.00;100791.09;5075846;28;45869;-77
2022/11/19 06:16:23;;;;;;;;;6.00;4.00;;;;;9.83;100.00;100789.34;5059862;28;45399;-77
2022/11/19 06:18:48;;;;;;;;;4.25;1.50;;;;;9.80;100.00;100795.47;5077821;28;57844;-77
2022/11/19 06:21:13;;;;;;;;;5.75;2.50;;;;;9.78;100.00;100801.56;5078022;28;52514;-77
2022/11/19 06:23:39;;;;;;;;;3.00;2.50;;;;;9.79;100.00;100809.50;5059989;28;54082;-77
2022/11/19 06:26:06;;;;;;;;;5.50;3.25;;;;;9.81;100.00;100814.81;5077605;28;45269;-77
2022/11/19 06:28:32;;;;;;;;;5.25;3.00;;;;;9.84;100.00;100818.34;5078200;28;45200;-76
2022/11/19 06:30:57;;;;;;;;;7.00;3.25;;;;;9.89;100.00;100821.94;5077297;28;61788;-77
2022/11/19 06:33:22;;;;;;;;;5.25;2.00;;;;;9.94;100.00;100824.66;5079659;27;67406;-77
2022/11/19 06:35:48;;;;;;;;;6.50;3.25;;;;;9.97;100.00;100830.84;5077662;28;63350;-77
2022/11/19 06:38:15;;;;;;;;;3.25;3.25;;;;;9.98;100.00;100834.38;5077360;28;45352;-77
2022/11/19 06:40:40;;;;;;;;;7.00;4.50;;;;;10.01;100.00;100841.44;5078142;28;46734;-77
2022/11/19 06:43:06;;;;;;;;;4.00;3.00;;;;;9.99;100.00;100833.50;5077532;28;60456;-78
2022/11/19 06:45:31;;;;;;;;;2.00;2.00;;;;;10.02;100.00;100849.38;5059770;28;45311;-77
2022/11/19 06:47:56;;;;;;;;;5.75;3.00;;;;;10.04;100.00;100841.50;5077705;28;59088;-77
2022/11/19 06:50:22;;;;;;;;;6.00;6.00;;;;;10.06;100.00;100848.53;5077225;28;57905;-77
2022/11/19 06:52:47;;;;;;;;;2.00;2.00;;;;;10.08;100.00;100853.84;5078318;28;46314;-76
2022/11/19 06:55:13;;;;;;;;;4.00;4.00;;;;;10.08;100.00;100853.84;5077944;28;45517;-77
2022/11/19 06:57:38;;;;;;;;;7.50;6.00;;;;;10.08;100.00;100848.59;5041732;28;45534;-77
2022/11/19 07:00:04;;;;;;;;;6.50;4.00;;;;;10.08;100.00;100846.81;5078394;28;45485;-77
2022/11/19 07:02:30;;;;;;;;;4.33;3.00;;;;;10.06;100.00;100859.09;5076428;28;47769;-77
2022/11/19 07:04:55;;;;;;;;;3.00;3.00;;;;;10.06;100.00;100853.81;5077109;28;67940;-77
2022/11/19 07:07:20;;;;;;;;;4.00;4.00;;;;;10.06;100.00;100860.84;5077736;28;45244;-77
2022/11/19 07:09:46;;;;;;;;;2.75;2.75;;;;;10.02;100.00;100862.56;5058774;28;58503;-77
2022/11/19 07:12:11;;;;;;;;;7.25;3.50;;;;;10.01;100.00;100863.41;5075390;28;63759;-77
2022/11/19 07:14:36;;;;;;;;;6.00;3.75;;;;;10.02;100.00;100864.34;5075263;28;65477;-78
2022/11/19 07:17:02;;;;;;;;;2.67;2.00;;;;;10.01;100.00;100865.16;5077199;28;45373;-77
2022/11/19 07:19:28;;;;;;;;;7.00;3.50;;;;;9.97;100.00;100874.81;5078027;28;45558;-76
2022/11/19 07:21:53;;;;;;;;;3.50;2.75;;;;;10.00;100.00;100873.97;5055849;28;46446;-77
2022/11/19 07:24:19;;;;;;;;;9.33;5.33;;;;;10.02;100.00;100883.69;5077047;28;65869;-77
2022/11/19 07:26:44;;;;;;;;;3.00;3.00;;;;;10.04;100.00;100886.34;5058675;28;49792;-77
2022/11/19 07:29:12;;;;;;;;;6.50;4.00;;;;;10.04;100.00;100896.88;5077396;28;45433;-77
2022/11/19 07:31:37;;;;;;;;;4.00;4.00;;;;;10.06;100.00;100887.22;5058625;28;47730;-77
2022/11/19 07:34:08;;;;;;;;;6.25;6.25;;;;;10.12;100.00;100890.84;5076788;28;45467;-77
2022/11/19 07:36:33;;;;;;;;;8.00;4.50;;;;;10.17;100.00;100893.53;5077329;28;45445;-77
2022/11/19 07:38:59;;;;;;;;;2.00;2.00;;;;;10.18;100.00;100898.84;5075909;28;45313;-77
2022/11/19 07:44:08;;;;;;;;;4.50;3.00;;;;;10.21;100.00;100906.78;5068219;28;45450;-76
2022/11/19 07:46:34;;;;;;;;;8.33;3.67;;;;;10.22;100.00;100903.28;5058833;28;45355;-76
2022/11/19 07:48:59;;;;;;;;;7.25;5.50;;;;;10.23;100.00;100904.19;5076798;28;45350;-76
2022/11/19 07:51:25;;;;;;;;;7.25;5.00;;;;;10.26;100.00;100917.44;5058519;28;45752;-76
2022/11/19 07:53:51;;;;;;;;;4.00;4.00;;;;;10.29;100.00;100925.41;5076675;28;45439;-76
2022/11/19 07:56:17;;;;;;;;;4.00;3.00;;;;;10.30;100.00;100914.00;5058296;28;53875;-76
2022/11/19 07:58:42;;;;;;;;;6.33;4.00;;;;;10.34;100.00;100934.28;5077111;28;45745;-76
2022/11/19 08:01:09;;;;;;;;;9.00;3.00;;;;;10.33;100.00;100932.50;5070011;28;45628;-76
2022/11/19 08:03:34;;;;;;;;;8.50;5.00;;;;;10.37;100.00;100933.44;5070957;28;45152;-77
2022/11/19 08:06:09;;;;;;;;;7.50;3.75;;;;;10.37;100.00;100936.94;5077136;28;45728;-77
2022/11/19 08:08:34;;;;;;;;;6.00;6.00;;;;;10.40;100.00;100938.75;5076106;28;61379;-77
2022/11/19 08:11:05;;;;;;;;;5.50;3.50;;;;;10.40;100.00;100944.03;5072025;28;67018;-76
2022/11/19 08:13:31;;;;;;;;;2.50;2.25;;;;;10.40;100.00;100944.03;5068865;28;45509;-76
2022/11/19 08:16:04;;;;;;;;;8.00;6.50;;;;;10.33;100.00;100937.75;5057783;28;45367;-78
2022/11/19 08:18:30;;;;;;;;;7.00;5.00;;;;;10.37;100.00;100957.19;5063053;28;45532;-78
2022/11/19 08:21:02;;;;;;;;;7.50;3.50;;;;;10.37;100.00;100973.03;5072020;28;45576;-78
2022/11/19 08:23:27;;;;;;;;;6.75;6.00;;;;;10.36;100.00;100969.50;5075163;28;45561;-77
2022/11/19 08:25:53;;;;;;;;;8.50;7.25;;;;;10.36;100.00;100966.84;5075458;28;60117;-78
2022/11/19 08:28:18;;;;;;;;;7.00;4.00;;;;;10.38;100.00;100973.03;5075933;28;56683;-80
2022/11/19 08:30:45;;;;;;;;;5.50;5.50;;;;;10.43;100.00;100976.63;5058108;28;45445;-79
2022/11/19 08:33:10;;;;;;;;;8.75;8.25;;;;;10.51;100.00;100975.88;5065617;28;45872;-76
2022/11/19 08:35:36;;;;;;;;;4.75;4.75;;;;;10.58;100.00;100980.34;5069817;28;57451;-81
2022/11/19 08:38:01;;;;;;;;;8.75;6.00;;;;;10.66;100.00;100979.59;5064373;28;45560;-82
2022/11/19 08:40:27;;;;;;;;;9.00;4.75;;;;;10.73;100.00;100985.84;5065285;28;46335;-80
2022/11/19 08:43:01;;;;;;;;;7.50;7.00;;;;;10.81;100.00;100983.28;5061069;28;54992;-81
2022/11/19 08:45:35;;;;;;;;;4.75;4.75;;;;;10.88;100.00;100982.50;5068987;28;45521;-78
2022/11/19 08:48:03;;;;;;;;;10.50;8.00;;;;;10.92;100.00;100984.28;5075928;28;45399;-81
2022/11/19 08:50:29;;;;;;;;;8.25;6.00;;;;;10.94;100.00;100986.09;5075380;28;46188;-81
2022/11/19 08:52:58;;;;;;;;;8.00;7.00;;;;;10.99;100.00;100987.03;5076020;28;45348;-82
2022/11/19 08:55:24;;;;;;;;;8.25;6.25;;;;;11.03;100.00;100987.97;5075817;28;45357;-78
2022/11/19 08:57:50;;;;;;;;;8.75;7.00;;;;;11.07;100.00;100988.88;5076108;28;45528;-77
2022/11/19 09:00:16;;;;;;;;;5.25;5.25;;;;;11.10;100.00;100996.84;5075572;28;45777;-79
2022/11/19 09:02:41;;;;;;;;;8.50;5.25;;;;;11.11;100.00;100999.50;5075341;28;45410;-78
2022/11/19 09:05:07;;;;;;;;;7.67;4.67;;;;;11.13;100.00;100989.84;5069172;28;45860;-78
2022/11/19 09:07:33;;;;;;;;;5.00;4.50;;;;;11.17;100.00;100996.03;5075771;28;45480;-78
2022/11/19 09:09:58;;;;;;;;;4.00;4.00;;;;;11.14;100.00;100991.63;5075091;28;47050;-79
2022/11/19 09:12:23;;;;;;;;;3.00;3.00;;;;;11.17;100.00;100998.69;5074878;28;59571;-79
2022/11/19 09:14:49;;;;;;;;;5.67;4.00;;;;;11.19;100.00;101000.50;5069255;28;45381;-79
2022/11/19 09:17:15;;;;;;;;;5.00;4.00;;;;;11.22;100.00;101003.16;5075217;28;45438;-79
2022/11/19 09:19:40;;;;;;;;;4.50;3.50;;;;;11.26;100.00;100990.88;5075133;28;45419;-79
2022/11/19 09:22:05;;;;;;;;;6.25;3.25;;;;;11.31;100.00;101001.50;5075063;28;49614;-79
2022/11/19 09:24:31;;;;;;;;;5.67;4.00;;;;;11.34;100.00;100997.09;5074853;28;57499;-79
2022/11/19 09:26:56;;;;;;;;;6.00;4.00;;;;;11.41;100.00;100998.06;5074603;28;58508;-81
2022/11/19 09:29:21;;;;;;;;;5.00;5.00;;;;;11.43;100.00;101005.13;5069231;28;49787;-82
2022/11/19 09:31:47;;;;;;;;;5.25;4.00;;;;;11.46;100.00;101009.59;5072526;28;65185;-80
2022/11/19 09:34:12;;;;;;;;;5.00;5.00;;;;;11.43;100.00;101007.78;5078840;27;50561;-79
2022/11/19 09:36:37;;;;;;;;;8.00;7.00;;;;;11.43;100.00;101010.41;5054753;28;45398;-78
2022/11/19 09:39:03;;;;;;;;;9.00;7.25;;;;;11.44;100.00;101014.84;5076463;28;61316;-79
2022/11/19 09:41:34;;;;;;;;;9.00;6.50;;;;;11.40;100.00;101018.34;5077583;28;49041;-78
2022/11/19 09:44:08;;;;;;;;;10.25;6.00;;;;;11.36;100.00;101015.66;5079134;28;45563;-78
2022/11/19 09:46:46;;;;;;;;;7.50;5.25;;;;;11.32;100.00;101019.13;5078472;28;45364;-79
2022/11/19 09:49:27;;;;;;;;;7.00;5.33;;;;;11.27;100.00;101017.31;5060082;28;45846;-83
2022/11/19 09:51:58;;;;;;;;;7.00;4.00;;;;;11.28;100.00;101020.81;5079202;28;45158;-80
2022/11/19 09:54:24;;;;;;;;;7.00;5.00;;;;;11.30;100.00;101020.88;5077604;28;45424;-77
2022/11/19 09:56:53;;;;;;;;;8.75;5.25;;;;;11.28;100.00;101019.06;5078510;28;45384;-78
2022/11/19 09:59:39;;;;;;;;;7.75;6.50;;;;;11.24;100.00;101008.47;5043368;28;47699;-80
2022/11/19 10:02:21;;;;;;;;;5.75;5.75;;;;;11.17;100.00;101010.13;5060130;28;45240;-81
2022/11/19 10:04:48;;;;;;;;;10.25;7.00;;;;;11.20;100.00;101019.88;5059825;28;45333;-83
2022/11/19 10:07:38;;;;;;;;;8.00;7.50;;;;;11.26;100.00;101022.59;5059444;28;45395;-83
2022/11/19 10:10:21;;;;;;;;;4.00;4.00;;;;;11.33;100.00;101024.41;5077709;28;48323;-84
2022/11/19 10:13:11;;;;;;;;;9.75;7.00;;;;;11.45;100.00;101021.94;5078979;28;45342;-79
2022/11/19 10:16:18;;;;;;;;;8.25;7.75;;;;;11.60;100.00;101031.75;5079163;28;45277;-77
2022/11/19 10:19:05;;;;;;;;;10.00;6.75;;;;;11.64;100.00;101028.25;5052192;28;45596;-78
2022/11/19 10:21:40;;;;;;;;;4.00;4.00;;;;;11.65;100.00;101018.56;5078611;28;45480;-78
2022/11/19 10:24:19;;;;;;;;;9.00;7.75;;;;;11.65;100.00;101011.53;5060903;28;45291;-79
2022/11/19 10:26:56;;;;;;;;;5.00;5.00;;;;;11.62;100.00;101016.78;5060690;28;45476;-79
2022/11/19 10:29:24;;;;;;;;;8.25;8.00;;;;;11.58;100.00;101017.63;5079166;28;45554;-78
2022/11/19 10:31:50;;;;;;;;;8.75;6.00;;;;;11.52;100.00;101018.47;5060388;28;47847;-81
2022/11/19 10:34:28;;;;;;;;;9.75;7.00;;;;;11.52;100.00;101017.56;5080904;27;45315;-81
2022/11/19 10:37:13;;;;;;;;;11.00;8.00;;;;;11.53;100.00;101014.06;5077633;28;45441;-82
2022/11/19 10:39:41;;;;;;;;;9.25;7.75;;;;;11.54;100.00;101022.00;5078300;28;45533;-81
2022/11/19 10:42:22;;;;;;;;;9.00;8.00;;;;;11.60;100.00;101017.63;5064139;28;46324;-81
2022/11/19 10:45:08;;;;;;;;;8.33;6.33;;;;;11.67;100.00;101011.56;5077708;28;45259;-80
2022/11/19 10:47:40;;;;;;;;;9.00;5.00;;;;;11.76;100.00;101008.97;5059801;28;45349;-79
2022/11/19 10:50:06;;;;;;;;;6.00;4.00;;;;;11.84;100.00;101001.16;5058647;28;45222;-82
2022/11/19 10:52:41;;;;;;;;;5.67;5.67;;;;;11.86;100.00;101002.03;5076728;28;46711;-82
2022/11/19 10:55:22;;;;;;;;;4.67;4.67;;;;;11.95;100.00;101002.13;5058649;28;45517;-79
2022/11/19 10:57:48;;;;;;;;;11.33;7.33;;;;;12.03;100.00;101011.88;5074311;27;45520;-83
2022/11/19 11:00:14;;;;;;;;;12.00;7.33;;;;;12.11;100.00;101003.13;5051570;28;45636;-84
2022/11/19 11:02:56;;;;;;;;;9.33;6.00;;;;;12.25;100.00;101009.38;5053881;28;45492;-80
2022/11/19 11:05:21;;;;;;;;;4.00;4.00;;;;;12.32;100.00;101003.28;5057487;28;45880;-80
2022/11/19 11:07:51;;;;;;;;;5.67;5.67;;;;;12.38;100.00;101013.91;5076573;28;51944;-77
2022/11/19 11:10:26;;;;;;;;;5.00;5.00;;;;;12.39;100.00;101010.38;5076475;28;45604;-77
2022/11/19 11:15:43;;;;;;;;;8.67;5.00;;;;;12.28;100.00;101001.47;5055946;28;45285;-78
2022/11/19 11:18:09;;;;;;;;;10.00;6.33;;;;;12.18;100.00;100994.34;5075588;28;46646;-78
2022/11/19 11:20:36;;;;;;;;;10.00;8.00;;;;;12.09;100.00;100997.84;5058355;28;45512;-79
2022/11/19 11:23:09;;;;;;;;;8.00;8.00;;;;;11.92;100.00;100995.03;5040184;28;46867;-77
2022/11/19 11:25:37;;;;;;;;;8.33;4.33;;;;;11.83;100.00;101005.56;5057382;28;45553;-80
2022/11/19 11:28:07;;;;;;;;;9.33;6.00;;;;;11.76;100.00;101006.31;5075492;28;45605;-79
2022/11/19 11:30:33;;;;;;;;;5.33;5.00;;;;;11.70;100.00;100999.22;5044878;27;46289;-78
2022/11/19 11:33:24;;;;;;;;;8.00;6.00;;;;;11.71;100.00;101002.75;5068176;28;55824;-79
2022/11/19 11:35:51;;;;;;;;;7.67;5.33;;;;;11.75;100.00;100999.28;5071743;27;45504;-81
2022/11/19 11:38:19;;;;;;;;;5.00;5.00;;;;;11.92;100.00;100996.78;5067215;28;45413;-80
2022/11/19 11:41:03;;;;;;;;;8.00;5.67;;;;;12.17;100.00;100995.22;5046811;28;45644;-82
2022/11/19 11:43:30;;;;;;;;;5.00;5.00;;;;;12.36;100.00;100997.13;5053165;28;47872;-79
2022/11/19 11:45:57;;;;;;;;;4.67;4.67;;;;;12.52;100.00;100998.13;5064425;28;45573;-78
2022/11/19 11:48:22;;;;;;;;;3.33;3.33;;;;;12.63;100.00;100996.41;5071473;28;45482;-84